createdAt,value
2023-04-24T00:01:08.844Z,66.54
2023-04-24T00:03:35.179Z,66.29
2023-04-24T00:06:01.500Z,66.71
2023-04-24T00:08:27.913Z,66.88
2023-04-24T00:10:54.353Z,67.12
2023-04-24T00:13:21.137Z,67.52
2023-04-24T00:15:47.491Z,67.72
2023-04-24T00:18:13.940Z,67.92
2023-04-24T00:20:40.389Z,68.29
2023-04-24T00:23:06.909Z,68.45
2023-04-24T00:25:33.317Z,68.67
2023-04-24T00:27:59.742Z,68.87
2023-04-24T00:30:26.160Z,69.12
2023-04-24T00:32:52.660Z,69.46
2023-04-24T00:35:19.032Z,69.17
2023-04-24T00:37:45.488Z,69.28
2023-04-24T00:40:11.946Z,69.22
2023-04-24T00:42:38.310Z,69.37
2023-04-24T00:45:04.766Z,69.62
2023-04-24T00:47:31.180Z,69.16
2023-04-24T00:49:57.562Z,69.29
2023-04-24T00:52:23.981Z,68.87
2023-04-24T00:54:50.446Z,69.50
2023-04-24T00:57:16.818Z,69.41
2023-04-24T00:59:43.609Z,68.59
2023-04-24T01:02:09.716Z,68.40
2023-04-24T01:04:36.227Z,68.91
2023-04-24T01:07:02.557Z,68.80
2023-04-24T01:09:28.972Z,68.87
2023-04-24T01:11:55.391Z,68.91
2023-04-24T01:14:23.830Z,69.16
2023-04-24T01:16:48.173Z,69.75
2023-04-24T01:19:14.659Z,69.69
2023-04-24T01:21:41.091Z,70.17
2023-04-24T01:24:07.515Z,70.12
2023-04-24T01:26:33.872Z,70.56
2023-04-24T01:29:00.245Z,71.00
2023-04-24T01:31:26.765Z,71.43
2023-04-24T01:33:53.166Z,72.02
2023-04-24T01:36:19.630Z,72.45
2023-04-24T01:38:46.088Z,72.27
2023-04-24T01:41:12.471Z,72.48
2023-04-24T01:43:38.886Z,72.52
2023-04-24T01:46:05.347Z,72.75
2023-04-24T01:48:31.799Z,72.89
2023-04-24T01:50:58.223Z,73.24
2023-04-24T01:53:25.003Z,74.41
2023-04-24T01:55:51.340Z,74.29
2023-04-24T01:58:17.824Z,73.70
2023-04-24T02:00:44.290Z,72.90
2023-04-24T02:03:10.839Z,73.64
2023-04-24T02:05:37.083Z,74.04
2023-04-24T02:08:03.512Z,73.82
2023-04-24T02:10:29.997Z,74.37
2023-04-24T02:12:58.810Z,74.03
2023-04-24T02:15:25.362Z,73.84
2023-04-24T02:17:51.788Z,74.08
2023-04-24T02:20:18.180Z,74.13
2023-04-24T02:22:44.683Z,74.12
2023-04-24T02:25:11.088Z,74.17
2023-04-24T02:27:37.622Z,74.75
2023-04-24T02:30:04.794Z,74.66
2023-04-24T02:32:31.263Z,75.44
2023-04-24T02:34:57.671Z,75.95
2023-04-24T02:37:24.077Z,76.00
2023-04-24T02:39:50.550Z,76.03
2023-04-24T02:42:17.021Z,75.59
2023-04-24T02:44:43.431Z,75.13
2023-04-24T02:47:09.855Z,74.95
2023-04-24T02:49:36.565Z,74.68
2023-04-24T02:52:02.901Z,75.21
2023-04-24T02:54:29.412Z,75.10
2023-04-24T02:56:55.931Z,75.62
2023-04-24T02:59:22.333Z,76.22
2023-04-24T03:01:48.852Z,76.41
2023-04-24T03:04:15.435Z,76.63
2023-04-24T03:06:41.658Z,76.75
2023-04-24T03:09:08.204Z,77.15
2023-04-24T03:11:34.543Z,77.14
2023-04-24T03:14:01.116Z,77.38
2023-04-24T03:16:27.639Z,77.40
2023-04-24T03:18:53.941Z,77.17
2023-04-24T03:21:20.471Z,76.97
2023-04-24T03:23:46.932Z,76.87
2023-04-24T03:26:13.362Z,76.99
2023-04-24T03:28:39.862Z,76.52
2023-04-24T03:31:06.339Z,76.11
2023-04-24T03:33:32.679Z,75.77
2023-04-24T03:35:59.163Z,75.47
2023-04-24T03:38:25.614Z,75.67
2023-04-24T03:40:52.081Z,74.92
2023-04-24T03:43:18.519Z,74.81
2023-04-24T03:45:45.005Z,74.42
2023-04-24T03:48:11.453Z,73.93
2023-04-24T03:50:38.017Z,73.68
2023-04-24T03:53:04.460Z,73.12
2023-04-24T03:55:30.977Z,72.81
2023-04-24T03:57:57.536Z,73.17
2023-04-24T04:00:23.991Z,73.11
2023-04-24T04:02:50.593Z,72.61
2023-04-24T04:05:16.990Z,72.21
2023-04-24T04:07:43.338Z,72.44
2023-04-24T04:10:09.765Z,72.25
2023-04-24T04:12:36.241Z,71.88
2023-04-24T04:15:02.740Z,71.36
2023-04-24T04:17:29.217Z,70.27
2023-04-24T04:19:55.647Z,69.99
2023-04-24T04:22:23.250Z,69.94
2023-04-24T04:24:49.677Z,69.52
2023-04-24T04:27:16.133Z,69.76
2023-04-24T04:29:42.912Z,70.03
2023-04-24T04:32:09.279Z,70.06
2023-04-24T04:34:35.598Z,70.55
2023-04-24T04:37:02.037Z,70.43
2023-04-24T04:39:28.563Z,69.72
2023-04-24T04:41:55.070Z,69.32
2023-04-24T04:44:21.530Z,70.17
2023-04-24T04:46:48.106Z,70.51
2023-04-24T04:49:14.531Z,70.58
2023-04-24T04:51:42.863Z,70.64
2023-04-24T04:54:07.508Z,70.97
2023-04-24T04:56:34.005Z,71.49
2023-04-24T04:59:00.569Z,71.98
2023-04-24T05:01:27.139Z,72.01
2023-04-24T05:03:53.997Z,71.67
2023-04-24T05:06:21.295Z,71.73
2023-04-24T05:08:46.864Z,71.42
2023-04-24T05:11:13.282Z,70.08
2023-04-24T05:13:41.156Z,69.71
2023-04-24T05:16:06.434Z,69.01
2023-04-24T05:18:32.911Z,68.69
2023-04-24T05:20:59.326Z,68.58
2023-04-24T05:23:25.839Z,68.89
2023-04-24T05:25:52.246Z,68.72
2023-04-24T05:28:18.681Z,67.70
2023-04-24T05:30:45.193Z,67.67
2023-04-24T05:33:11.645Z,67.48
2023-04-24T05:35:38.141Z,66.14
2023-04-24T05:38:04.538Z,65.57
2023-04-24T05:40:31.018Z,65.56
2023-04-24T05:42:59.500Z,66.00
2023-04-24T05:45:23.825Z,64.92
2023-04-24T05:47:50.368Z,62.45
2023-04-24T05:50:16.824Z,62.19
2023-04-24T05:52:43.941Z,61.03
2023-04-24T05:55:10.488Z,61.64
2023-04-24T05:57:36.960Z,62.23
2023-04-24T06:00:03.372Z,62.95
2023-04-24T06:02:30.062Z,63.17
2023-04-24T06:04:56.381Z,61.58
2023-04-24T06:07:22.713Z,60.41
2023-04-24T06:09:49.093Z,58.33
2023-04-24T06:12:15.707Z,56.79
2023-04-24T06:14:42.146Z,56.29
2023-04-24T06:17:08.597Z,54.15
2023-04-24T06:19:34.956Z,55.33
2023-04-24T06:22:01.459Z,53.77
2023-04-24T06:24:30.523Z,51.84
2023-04-24T06:26:54.332Z,49.71
2023-04-24T06:29:20.863Z,50.86
2023-04-24T06:31:47.343Z,49.91
2023-04-24T06:34:13.702Z,50.20
2023-04-24T06:36:40.160Z,53.97
2023-04-24T06:39:06.609Z,55.40
2023-04-24T06:41:32.990Z,54.68
2023-04-24T06:43:59.604Z,53.20
2023-04-24T06:46:26.107Z,53.17
2023-04-24T06:48:52.512Z,50.33
2023-04-24T06:51:18.869Z,48.87
2023-04-24T06:53:46.047Z,49.79
2023-04-24T06:56:11.700Z,50.58
2023-04-24T06:58:38.133Z,49.87
2023-04-24T07:01:04.567Z,48.22
2023-04-24T07:03:31.009Z,50.04
2023-04-24T07:05:57.467Z,51.03
2023-04-24T07:08:23.873Z,52.04
2023-04-24T07:10:50.266Z,51.64
2023-04-24T07:13:16.715Z,51.59
2023-04-24T07:15:43.345Z,51.24
2023-04-24T07:18:10.259Z,51.24
2023-04-24T07:20:36.635Z,50.34
2023-04-24T07:23:03.110Z,47.05
2023-04-24T07:25:29.678Z,47.28
2023-04-24T07:27:56.010Z,49.41
2023-04-24T07:30:22.409Z,50.66
2023-04-24T07:32:48.856Z,49.82
2023-04-24T07:35:15.493Z,47.23
2023-04-24T07:37:41.886Z,46.39
2023-04-24T07:40:08.306Z,44.35
2023-04-24T07:42:34.788Z,42.29
2023-04-24T07:45:02.244Z,40.62
2023-04-24T07:47:28.777Z,40.81
2023-04-24T07:49:55.118Z,40.57
2023-04-24T07:52:21.513Z,41.29
2023-04-24T07:54:47.943Z,41.58
2023-04-24T07:57:14.346Z,41.46
2023-04-24T07:59:40.949Z,40.38
2023-04-24T08:02:07.336Z,40.41
2023-04-24T08:04:33.808Z,39.39
2023-04-24T08:07:00.122Z,39.48
2023-04-24T08:09:27.621Z,38.39
2023-04-24T08:11:52.992Z,37.89
2023-04-24T08:14:19.382Z,38.29
2023-04-24T08:16:45.759Z,37.73
2023-04-24T08:19:12.195Z,38.71
2023-04-24T08:21:38.643Z,38.29
2023-04-24T08:24:05.106Z,37.28
2023-04-24T08:26:31.509Z,36.83
2023-04-24T08:28:58.080Z,37.13
2023-04-24T08:31:24.472Z,37.05
2023-04-24T08:33:50.804Z,37.59
2023-04-24T08:36:17.226Z,37.67
2023-04-24T08:38:43.672Z,37.06
2023-04-24T08:41:10.012Z,35.86
2023-04-24T08:43:36.438Z,35.53
2023-04-24T08:46:05.550Z,36.55
2023-04-24T08:48:31.590Z,36.90
2023-04-24T08:50:55.687Z,35.17
2023-04-24T08:53:22.174Z,35.68
2023-04-24T08:55:48.545Z,34.65
2023-04-24T08:58:14.922Z,34.01
2023-04-24T09:00:41.504Z,34.11
2023-04-24T09:03:08.448Z,34.16
2023-04-24T09:05:34.701Z,35.10
2023-04-24T09:08:01.164Z,35.29
2023-04-24T09:10:27.631Z,34.95
2023-04-24T09:12:56.406Z,34.15
2023-04-24T09:15:22.772Z,32.72
2023-04-24T09:17:49.261Z,33.01
2023-04-24T09:20:15.703Z,34.07
2023-04-24T09:22:42.097Z,34.07
2023-04-24T09:25:08.518Z,34.59
2023-04-24T09:27:34.895Z,35.14
2023-04-24T09:30:01.447Z,35.34
2023-04-24T09:32:27.861Z,35.43
2023-04-24T09:34:54.590Z,34.21
2023-04-24T09:37:20.987Z,33.64
2023-04-24T09:39:47.398Z,33.10
2023-04-24T09:42:13.777Z,33.00
2023-04-24T09:44:40.172Z,32.18
2023-04-24T09:47:06.598Z,33.55
2023-04-24T09:49:33.037Z,33.80
2023-04-24T09:51:59.498Z,33.78
2023-04-24T09:54:25.887Z,33.54
2023-04-24T09:56:52.266Z,33.67
2023-04-24T09:59:19.738Z,32.10
2023-04-24T10:01:46.224Z,32.21
2023-04-24T10:04:12.606Z,30.73
2023-04-24T10:06:39.023Z,29.76
2023-04-24T10:09:05.512Z,30.42
2023-04-24T10:11:31.989Z,32.25
2023-04-24T10:13:58.835Z,31.09
2023-04-24T10:16:25.424Z,31.31
2023-04-24T10:18:51.604Z,30.56
2023-04-24T10:21:18.002Z,31.33
2023-04-24T10:23:44.368Z,32.12
2023-04-24T10:26:10.773Z,33.46
2023-04-24T10:28:37.231Z,32.46
2023-04-24T10:31:03.770Z,31.55
2023-04-24T10:33:30.072Z,31.70
2023-04-24T10:35:56.508Z,31.17
2023-04-24T10:38:22.964Z,31.40
2023-04-24T10:40:49.338Z,29.79
2023-04-24T10:43:15.738Z,29.43
2023-04-24T10:45:42.248Z,29.94
2023-04-24T10:48:08.697Z,30.00
2023-04-24T10:50:37.151Z,30.61
2023-04-24T10:53:03.607Z,32.54
2023-04-24T10:55:29.980Z,34.07
2023-04-24T10:57:56.369Z,34.04
2023-04-24T11:00:22.806Z,33.94
2023-04-24T11:02:51.729Z,34.72
2023-04-24T11:05:17.734Z,35.48
2023-04-24T11:07:44.227Z,35.67
2023-04-24T11:10:10.647Z,36.54
2023-04-24T11:12:37.072Z,37.08
2023-04-24T11:15:03.797Z,39.33
2023-04-24T11:17:29.919Z,39.64
2023-04-24T11:19:56.353Z,39.74
2023-04-24T11:22:22.668Z,39.42
2023-04-24T11:24:49.088Z,39.20
2023-04-24T11:27:15.575Z,39.73
2023-04-24T11:29:41.951Z,41.05
2023-04-24T11:32:08.414Z,48.02
2023-04-24T11:34:34.805Z,56.34
2023-04-24T11:37:01.225Z,58.78
2023-04-24T11:39:27.641Z,58.78
2023-04-24T11:41:54.065Z,54.13
2023-04-24T11:44:20.469Z,54.28
2023-04-24T11:46:46.879Z,55.95
2023-04-24T11:49:13.268Z,53.35
2023-04-24T11:51:52.296Z,52.32
2023-04-24T11:54:06.169Z,48.94
2023-04-24T11:56:32.566Z,44.15
2023-04-24T11:58:58.958Z,44.16
2023-04-24T12:01:25.378Z,41.12
2023-04-24T12:03:52.144Z,40.71
2023-04-24T12:06:18.376Z,40.94
2023-04-24T12:08:44.617Z,41.83
2023-04-24T12:11:11.079Z,43.16
2023-04-24T12:13:37.503Z,41.21
2023-04-24T12:16:03.861Z,41.93
2023-04-24T12:18:30.294Z,42.33
2023-04-24T12:21:01.339Z,42.22
2023-04-24T12:23:23.078Z,42.65
2023-04-24T12:25:49.512Z,41.84
2023-04-24T12:28:16.030Z,42.56
2023-04-24T12:30:42.440Z,42.86
2023-04-24T12:33:08.883Z,43.62
2023-04-24T12:35:36.427Z,43.72
2023-04-24T12:38:02.838Z,43.52
2023-04-24T12:40:29.245Z,43.46
2023-04-24T12:42:56.834Z,43.24
2023-04-24T12:45:22.135Z,42.73
2023-04-24T12:47:48.528Z,42.46
2023-04-24T12:50:14.918Z,43.21
2023-04-24T12:52:41.344Z,42.47
2023-04-24T12:55:07.706Z,42.70
2023-04-24T12:57:34.080Z,42.55
2023-04-24T13:00:00.461Z,42.29
2023-04-24T13:02:26.987Z,42.65
2023-04-24T13:04:53.315Z,43.56
2023-04-24T13:07:19.745Z,44.06
2023-04-24T13:09:46.153Z,43.58
2023-04-24T13:12:12.595Z,43.55
2023-04-24T13:14:38.970Z,43.50
2023-04-24T13:17:05.391Z,43.85
2023-04-24T13:19:31.877Z,44.19
2023-04-24T13:21:58.231Z,44.47
2023-04-24T13:24:26.815Z,44.80
2023-04-24T13:26:53.246Z,44.33
2023-04-24T13:29:19.746Z,43.58
2023-04-24T13:31:46.270Z,43.67
2023-04-24T13:34:12.589Z,42.06
2023-04-24T13:36:39.053Z,43.24
2023-04-24T13:39:05.471Z,41.96
2023-04-24T13:41:31.874Z,43.15
2023-04-24T13:43:58.314Z,43.29
2023-04-24T13:46:24.793Z,43.27
2023-04-24T13:48:51.118Z,44.23
2023-04-24T13:51:17.548Z,44.50
2023-04-24T13:53:44.203Z,44.10
2023-04-24T13:56:10.410Z,44.09
2023-04-24T13:58:36.783Z,43.85
2023-04-24T14:01:03.274Z,42.93
2023-04-24T14:03:29.833Z,43.81
2023-04-24T14:05:56.292Z,43.72
2023-04-24T14:08:22.659Z,44.51
2023-04-24T14:10:49.040Z,45.88
2023-04-24T14:13:15.661Z,46.32
2023-04-24T14:15:42.161Z,46.78
2023-04-24T14:18:08.560Z,46.56
2023-04-24T14:20:35.033Z,48.46
2023-04-24T14:23:01.492Z,48.41
2023-04-24T14:25:27.872Z,49.10
2023-04-24T14:27:54.361Z,50.55
2023-04-24T14:30:20.786Z,50.56
2023-04-24T14:32:47.242Z,51.55
2023-04-24T14:35:13.576Z,53.60
2023-04-24T14:37:39.962Z,55.61
2023-04-24T14:40:21.230Z,56.81
2023-04-24T14:42:32.784Z,53.88
2023-04-24T14:44:59.223Z,53.19
2023-04-24T14:47:25.628Z,52.79
2023-04-24T14:49:52.114Z,52.81
2023-04-24T14:52:18.477Z,53.00
2023-04-24T14:54:47.150Z,53.04
2023-04-24T14:57:15.896Z,52.37
2023-04-24T14:59:39.969Z,50.77
2023-04-24T15:02:15.958Z,50.87
2023-04-24T15:04:33.013Z,51.25
2023-04-24T15:06:59.268Z,52.06
2023-04-24T15:09:25.700Z,52.44
2023-04-24T15:11:52.127Z,52.70
2023-04-24T15:14:18.537Z,54.01
2023-04-24T15:16:45.000Z,55.37
2023-04-24T15:19:11.468Z,57.21
2023-04-24T15:21:37.883Z,58.49
2023-04-24T15:24:04.295Z,58.97
2023-04-24T15:26:30.883Z,59.63
2023-04-24T15:28:57.305Z,59.33
2023-04-24T15:31:23.758Z,59.25
2023-04-24T15:33:50.315Z,59.65
2023-04-24T15:36:16.634Z,61.00
2023-04-24T15:38:42.998Z,61.30
2023-04-24T15:41:09.486Z,61.98
2023-04-24T15:43:35.932Z,62.26
2023-04-24T15:46:02.381Z,61.84
2023-04-24T15:48:28.738Z,62.34
2023-04-24T15:50:55.155Z,62.87
2023-04-24T15:53:21.716Z,64.19
2023-04-24T15:55:48.098Z,66.17
2023-04-24T15:58:14.588Z,67.64
2023-04-24T16:00:40.975Z,68.94
2023-04-24T16:03:09.952Z,69.75
2023-04-24T16:05:33.895Z,70.40
2023-04-24T16:08:00.496Z,71.67
2023-04-24T16:10:27.195Z,72.97
2023-04-24T16:12:53.553Z,74.07
2023-04-24T16:15:19.982Z,74.17
2023-04-24T16:17:46.496Z,75.35
2023-04-24T16:20:12.831Z,77.85
2023-04-24T16:22:39.413Z,79.83
2023-04-24T16:25:06.276Z,81.77
2023-04-24T16:27:32.632Z,83.43
2023-04-24T16:29:59.129Z,83.97
2023-04-24T16:32:25.649Z,84.26
2023-04-24T16:34:52.152Z,86.75
2023-04-24T16:37:18.564Z,86.54
2023-04-24T16:39:44.945Z,87.34
2023-04-24T16:42:11.638Z,88.67
2023-04-24T16:44:38.072Z,89.56
2023-04-24T16:47:04.557Z,89.91
2023-04-24T16:49:31.167Z,89.45
2023-04-24T16:51:57.765Z,90.27
2023-04-24T16:54:24.205Z,91.21
2023-04-24T16:56:53.282Z,91.34
2023-04-24T16:59:17.286Z,91.78
2023-04-24T17:01:43.482Z,91.48
2023-04-24T17:04:10.927Z,90.30
2023-04-24T17:06:37.234Z,89.48
2023-04-24T17:09:03.868Z,89.32
2023-04-24T17:11:31.191Z,88.44
2023-04-24T17:13:56.815Z,88.99
2023-04-24T17:16:25.427Z,88.63
2023-04-24T17:18:51.918Z,89.03
2023-04-24T17:21:18.416Z,88.81
2023-04-24T17:23:45.392Z,88.19
2023-04-24T17:26:11.819Z,88.58
2023-04-24T17:28:38.332Z,88.58
2023-04-24T17:31:04.660Z,90.61
2023-04-24T17:33:31.088Z,91.85
2023-04-24T17:35:57.588Z,91.81
2023-04-24T17:38:23.960Z,92.30
2023-04-24T17:40:50.479Z,91.61
2023-04-24T17:43:16.937Z,92.29
2023-04-24T17:45:44.619Z,92.90
2023-04-24T17:48:11.110Z,92.52
2023-04-24T17:50:37.574Z,91.46
2023-04-24T17:53:03.927Z,91.02
2023-04-24T17:55:30.629Z,90.15
2023-04-24T17:57:57.160Z,88.80
2023-04-24T18:00:23.784Z,88.16
2023-04-24T18:02:50.474Z,88.42
2023-04-24T18:05:17.179Z,89.66
2023-04-24T18:07:43.596Z,92.02
2023-04-24T18:10:10.323Z,94.19
2023-04-24T18:12:36.687Z,94.96
2023-04-24T18:15:13.711Z,96.16
2023-04-24T18:17:29.536Z,98.01
2023-04-24T18:19:55.998Z,100.00
2023-04-24T18:22:22.645Z,100.00
2023-04-24T18:24:49.164Z,100.00
2023-04-24T18:27:15.590Z,100.00
2023-04-24T18:29:42.237Z,100.00
2023-04-24T18:32:08.649Z,100.00
2023-04-24T18:34:35.050Z,100.00
2023-04-24T18:37:01.503Z,100.00
2023-04-24T18:39:27.922Z,100.00
2023-04-24T18:41:54.297Z,100.00
2023-04-24T18:44:20.788Z,100.00
2023-04-24T18:46:47.289Z,100.00
2023-04-24T18:49:13.781Z,100.00
2023-04-24T18:51:52.577Z,100.00
2023-04-24T18:54:06.688Z,100.00
2023-04-24T18:56:33.300Z,100.00
2023-04-24T18:58:59.723Z,100.00
2023-04-24T19:01:26.251Z,100.00
2023-04-24T19:03:52.768Z,100.00
2023-04-24T19:06:20.131Z,100.00
2023-04-24T19:08:46.932Z,100.00
2023-04-24T19:11:13.043Z,100.00
2023-04-24T19:13:39.498Z,100.00
2023-04-24T19:16:06.082Z,100.00
2023-04-24T19:18:32.411Z,100.00
2023-04-24T19:20:58.809Z,100.00
2023-04-24T19:23:25.264Z,100.00
2023-04-24T19:25:51.765Z,100.00
2023-04-24T19:28:18.096Z,100.00
2023-04-24T19:30:44.615Z,100.00
2023-04-24T19:33:11.049Z,100.00
2023-04-24T19:35:37.502Z,100.00
2023-04-24T19:38:03.937Z,100.00
2023-04-24T19:40:30.526Z,100.00
2023-04-24T19:42:56.984Z,100.00
2023-04-24T19:45:23.449Z,100.00
2023-04-24T19:47:49.856Z,100.00
2023-04-24T19:50:16.716Z,100.00
2023-04-24T19:52:43.515Z,100.00
2023-04-24T19:55:09.919Z,100.00
2023-04-24T19:57:36.404Z,100.00
2023-04-24T20:00:02.817Z,100.00
2023-04-24T20:02:29.473Z,100.00
2023-04-24T20:04:55.930Z,100.00
2023-04-24T20:07:22.170Z,100.00
2023-04-24T20:09:48.641Z,100.00
2023-04-24T20:12:15.013Z,100.00
2023-04-24T20:14:41.404Z,100.00
2023-04-24T20:17:07.941Z,100.00
2023-04-24T20:19:34.388Z,100.00
2023-04-24T20:22:00.710Z,100.00
2023-04-24T20:24:27.114Z,100.00
2023-04-24T20:26:53.531Z,100.00
2023-04-24T20:29:20.125Z,100.00
2023-04-24T20:31:46.630Z,100.00
2023-04-24T20:34:12.958Z,100.00
2023-04-24T20:36:39.315Z,100.00
2023-04-24T20:39:05.975Z,100.00
2023-04-24T20:41:32.399Z,100.00
2023-04-24T20:43:58.884Z,100.00
2023-04-24T20:46:25.423Z,100.00
2023-04-24T20:48:51.806Z,100.00
2023-04-24T20:51:18.117Z,100.00
2023-04-24T20:53:44.511Z,100.00
2023-04-24T20:56:10.919Z,100.00
2023-04-24T20:58:37.321Z,100.00
2023-04-24T21:01:03.783Z,100.00
2023-04-24T21:03:30.413Z,100.00
2023-04-24T21:05:56.795Z,100.00
2023-04-24T21:08:23.213Z,100.00
2023-04-24T21:10:49.641Z,100.00
2023-04-24T21:13:16.076Z,100.00
2023-04-24T21:15:42.520Z,100.00
2023-04-24T21:18:09.039Z,100.00
2023-04-24T21:20:35.414Z,100.00
2023-04-24T21:23:01.785Z,100.00
2023-04-24T21:25:28.255Z,100.00
2023-04-24T21:27:54.599Z,100.00
2023-04-24T21:30:20.988Z,100.00
2023-04-24T21:32:47.428Z,100.00
2023-04-24T21:35:13.830Z,100.00
2023-04-24T21:37:40.279Z,100.00
2023-04-24T21:40:06.669Z,100.00
2023-04-24T21:42:33.081Z,100.00
2023-04-24T21:44:59.484Z,100.00
2023-04-24T21:47:26.167Z,100.00
2023-04-24T21:49:52.625Z,100.00
2023-04-24T21:52:19.097Z,100.00
2023-04-24T21:54:45.459Z,100.00
2023-04-24T21:57:11.825Z,100.00
2023-04-24T21:59:38.244Z,100.00
2023-04-24T22:02:04.664Z,100.00
2023-04-24T22:04:31.123Z,100.00
2023-04-24T22:06:57.446Z,100.00
2023-04-24T22:09:23.969Z,100.00
2023-04-24T22:11:50.379Z,100.00
2023-04-24T22:14:16.814Z,100.00
2023-04-24T22:16:43.331Z,100.00
2023-04-24T22:19:09.665Z,100.00
2023-04-24T22:21:36.098Z,100.00
2023-04-24T22:24:02.536Z,100.00
2023-04-24T22:26:29.244Z,100.00
2023-04-24T22:28:55.668Z,100.00
2023-04-24T22:31:22.031Z,100.00
2023-04-24T22:33:48.681Z,100.00
2023-04-24T22:36:15.282Z,100.00
2023-04-24T22:38:41.646Z,100.00
2023-04-24T22:41:08.108Z,100.00
2023-04-24T22:43:34.546Z,100.00
2023-04-24T22:46:00.889Z,100.00
2023-04-24T22:48:27.349Z,100.00
2023-04-24T22:50:53.820Z,100.00
2023-04-24T22:53:20.180Z,100.00
2023-04-24T22:55:46.578Z,100.00
2023-04-24T22:58:13.036Z,100.00
2023-04-24T23:00:39.501Z,100.00
2023-04-24T23:03:05.961Z,100.00
2023-04-24T23:05:32.294Z,100.00
2023-04-24T23:07:58.783Z,100.00
2023-04-24T23:10:25.173Z,100.00
2023-04-24T23:12:51.743Z,100.00
2023-04-24T23:15:18.212Z,100.00
2023-04-24T23:17:44.718Z,100.00
2023-04-24T23:20:12.104Z,100.00
2023-04-24T23:22:38.617Z,100.00
2023-04-24T23:25:05.067Z,100.00
2023-04-24T23:27:31.460Z,100.00
2023-04-24T23:29:57.965Z,100.00
2023-04-24T23:32:24.434Z,100.00
2023-04-24T23:34:50.890Z,100.00
2023-04-24T23:37:18.923Z,100.00
2023-04-24T23:39:43.723Z,100.00
2023-04-24T23:42:10.106Z,100.00
2023-04-24T23:44:36.575Z,100.00
2023-04-24T23:47:02.989Z,100.00
2023-04-24T23:49:29.428Z,100.00
2023-04-24T23:51:55.879Z,100.00
2023-04-24T23:54:22.335Z,100.00
2023-04-24T23:56:48.715Z,100.00
2023-04-24T23:59:15.175Z,100.00
